Time;durP1;ratioP1;P1;durP2;ratioP2;P2;SDS_P1;SDS_P2;PMS_P1;PMS_P2;Temp;Humidity;BMP_temperature;BMP_pressure;BME280_temperature;BME280_humidity;BME280_pressure;Samples;Min_cycle;Max_cycle;Signal;HPM_P1;HPM_P2
2022/05/10 00:01:08;;;;;;;;;;;;;;;;;;5036907;28;20230;-70
2022/05/10 00:03:34;;;;;;;;;;;;;;;;;;5010605;28;20381;-69
2022/05/10 00:06:00;;;;;;;;;;;;;;;;;;5028715;28;19923;-69
2022/05/10 00:08:26;;;;;;;;;;;;;;;;;;5037054;28;20381;-69
2022/05/10 00:10:52;;;;;;;;;;;;;;;;;;5029781;28;20315;-69
2022/05/10 00:13:18;;;;;;;;;;;;;;;;;;5035505;28;19917;-69
2022/05/10 00:15:44;;;;;;;;;;;;;;;;;;5032477;28;20003;-69
2022/05/10 00:18:10;;;;;;;;;;;;;;;;;;5015863;28;19917;-69
2022/05/10 00:20:36;;;;;;;;;;;;;;;;;;5034775;28;20062;-69
2022/05/10 00:23:02;;;;;;;;;;;;;;;;;;5031476;28;19917;-70
2022/05/10 00:25:28;;;;;;;;;;;;;;;;;;5029190;28;19920;-69
2022/05/10 00:27:54;;;;;;;;;;;;;;;;;;5032291;28;20465;-70
2022/05/10 00:30:20;;;;;;;;;;;;;;;;;;5019347;28;20392;-70
2022/05/10 00:32:46;;;;;;;;;;;;;;;;;;5028242;28;19956;-69
2022/05/10 00:35:15;;;;;;;;;;;;;;;;;;5026500;28;19994;-70
2022/05/10 00:37:41;;;;;;;;;;;;;;;;;;5026798;28;20263;-69
2022/05/10 00:40:07;;;;;;;;;;;;;;;;;;5028588;28;19947;-70
2022/05/10 00:42:33;;;;;;;;;;;;;;;;;;5029226;28;19917;-69
2022/05/10 00:44:59;;;;;;;;;;;;;;;;;;5025024;28;19920;-70
2022/05/10 00:47:25;;;;;;;;;;;;;;;;;;5033946;28;20680;-69
2022/05/10 00:49:51;;;;;;;;;;;;;;;;;;5014039;28;20389;-69
2022/05/10 00:52:17;;;;;;;;;;;;;;;;;;5036509;28;19921;-71
2022/05/10 00:54:43;;;;;;;;;;;;;;;;;;5029523;28;19916;-69
2022/05/10 00:57:09;;;;;;;;;;;;;;;;;;5032068;28;19917;-69
2022/05/10 00:59:34;;;;;;;;;;;;;;;;;;5026863;28;20355;-69
2022/05/10 01:02:00;;;;;;;;;;;;;;;;;;5029318;28;19917;-69
2022/05/10 01:04:27;;;;;;;;;;;;;;;;;;5029955;28;19965;-70
2022/05/10 01:06:53;;;;;;;;;;;;;;;;;;5024546;28;19931;-70
2022/05/10 01:09:19;;;;;;;;;;;;;;;;;;5031288;28;20319;-70
2022/05/10 01:11:45;;;;;;;;;;;;;;;;;;5025263;28;19920;-70
2022/05/10 01:14:11;;;;;;;;;;;;;;;;;;5028389;28;20347;-71
2022/05/10 01:16:37;;;;;;;;;;;;;;;;;;5031547;28;19928;-70
2022/05/10 01:19:03;;;;;;;;;;;;;;;;;;5005164;28;19963;-70
2022/05/10 01:21:29;;;;;;;;;;;;;;;;;;5029209;28;20644;-70
2022/05/10 01:23:55;;;;;;;;;;;;;;;;;;5026924;28;19923;-69
2022/05/10 01:26:21;;;;;;;;;;;;;;;;;;5012351;28;19921;-69
2022/05/10 01:28:47;;;;;;;;;;;;;;;;;;5024423;28;19920;-68
2022/05/10 01:31:13;;;;;;;;;;;;;;;;;;5031046;28;19921;-70
2022/05/10 01:33:40;;;;;;;;;;;;;;;;;;5014213;28;19925;-70
2022/05/10 01:36:06;;;;;;;;;;;;;;;;;;5009617;28;20905;-71
2022/05/10 01:38:32;;;;;;;;;;;;;;;;;;5016134;28;19917;-70
2022/05/10 01:40:58;;;;;;;;;;;;;;;;;;5013735;28;20488;-70
2022/05/10 01:43:24;;;;;;;;;;;;;;;;;;5036459;28;20236;-69
2022/05/10 01:45:50;;;;;;;;;;;;;;;;;;5031634;28;20365;-69
2022/05/10 01:48:16;;;;;;;;;;;;;;;;;;5025083;28;20048;-70
2022/05/10 01:50:42;;;;;;;;;;;;;;;;;;5008822;28;20450;-69
2022/05/10 01:53:08;;;;;;;;;;;;;;;;;;5028050;28;20255;-69
2022/05/10 01:55:34;;;;;;;;;;;;;;;;;;5026592;28;19995;-69
2022/05/10 01:58:00;;;;;;;;;;;;;;;;;;5026342;28;19970;-69
2022/05/10 02:00:27;;;;;;;;;;;;;;;;;;5034869;28;19958;-70
2022/05/10 02:02:53;;;;;;;;;;;;;;;;;;5026368;28;20286;-69
2022/05/10 02:05:19;;;;;;;;;;;;;;;;;;5009431;28;19916;-69
2022/05/10 02:07:45;;;;;;;;;;;;;;;;;;5024572;28;20365;-68
2022/05/10 02:10:12;;;;;;;;;;;;;;;;;;5025759;28;19963;-69
2022/05/10 02:12:38;;;;;;;;;;;;;;;;;;5027259;28;19943;-69
2022/05/10 02:15:04;;;;;;;;;;;;;;;;;;5028625;28;19958;-68
2022/05/10 02:17:30;;;;;;;;;;;;;;;;;;5028234;28;20381;-68
2022/05/10 02:19:56;;;;;;;;;;;;;;;;;;5026418;28;19924;-68
2022/05/10 02:22:23;;;;;;;;;;;;;;;;;;5026905;28;20653;-69
2022/05/10 02:24:49;;;;;;;;;;;;;;;;;;5025272;28;19980;-69
2022/05/10 02:27:15;;;;;;;;;;;;;;;;;;5027400;28;19927;-68
2022/05/10 02:29:41;;;;;;;;;;;;;;;;;;5008236;28;19923;-68
2022/05/10 02:34:51;;;;;;;;;;;;;;;;;;5024773;28;19928;-71
2022/05/10 02:37:17;;;;;;;;;;;;;;;;;;5019028;28;19916;-68
2022/05/10 02:47:58;;;;;;;;;;;;;;;;;;5022347;28;19924;-70
2022/05/10 02:50:24;;;;;;;;;;;;;;;;;;5003112;28;19916;-69
2022/05/10 02:52:50;;;;;;;;;;;;;;;;;;5028040;28;19927;-71
2022/05/10 02:55:16;;;;;;;;;;;;;;;;;;5031713;28;19916;-70
2022/05/10 02:57:42;;;;;;;;;;;;;;;;;;5027763;28;19924;-70
2022/05/10 03:00:07;;;;;;;;;;;;;;;;;;5033181;28;20624;-68
2022/05/10 03:02:33;;;;;;;;;;;;;;;;;;5030350;28;19917;-70
2022/05/10 03:04:59;;;;;;;;;;;;;;;;;;5021933;28;19925;-70
2022/05/10 03:07:25;;;;;;;;;;;;;;;;;;5003011;28;20546;-70
2022/05/10 03:09:51;;;;;;;;;;;;;;;;;;5003443;28;19982;-68
2022/05/10 03:12:17;;;;;;;;;;;;;;;;;;5005565;28;20466;-71
2022/05/10 03:14:43;;;;;;;;;;;;;;;;;;5007043;28;19944;-68
2022/05/10 03:17:10;;;;;;;;;;;;;;;;;;5010871;28;20446;-68
2022/05/10 03:19:36;;;;;;;;;;;;;;;;;;5011056;28;20334;-71
2022/05/10 03:22:02;;;;;;;;;;;;;;;;;;5006686;28;19917;-68
2022/05/10 03:24:28;;;;;;;;;;;;;;;;;;5005612;28;20234;-68
2022/05/10 03:26:54;;;;;;;;;;;;;;;;;;5003060;28;19928;-69
2022/05/10 03:29:20;;;;;;;;;;;;;;;;;;5010083;28;19917;-69
2022/05/10 03:31:46;;;;;;;;;;;;;;;;;;5008214;28;20335;-69
2022/05/10 03:36:57;;;;;;;;;;;;;;;;;;5007943;28;19959;-69
2022/05/10 03:39:23;;;;;;;;;;;;;;;;;;5010385;28;20222;-69
2022/05/10 03:41:49;;;;;;;;;;;;;;;;;;5005738;28;19928;-68
2022/05/10 03:44:15;;;;;;;;;;;;;;;;;;5003515;28;19917;-68
2022/05/10 03:46:41;;;;;;;;;;;;;;;;;;5005116;28;19971;-68
2022/05/10 03:49:06;;;;;;;;;;;;;;;;;;5004754;28;20345;-68
2022/05/10 03:51:32;;;;;;;;;;;;;;;;;;5004461;28;19968;-69
2022/05/10 03:53:58;;;;;;;;;;;;;;;;;;5002353;28;19979;-68
2022/05/10 03:56:24;;;;;;;;;;;;;;;;;;5002417;28;20275;-68
2022/05/10 03:58:50;;;;;;;;;;;;;;;;;;5001308;28;20442;-68
2022/05/10 04:01:18;;;;;;;;;;;;;;;;;;5001592;28;19917;-70
2022/05/10 04:03:44;;;;;;;;;;;;;;;;;;5003476;28;20432;-70
2022/05/10 04:06:10;;;;;;;;;;;;;;;;;;5004686;28;19917;-70
2022/05/10 04:08:36;;;;;;;;;;;;;;;;;;5021092;28;20431;-70
2022/05/10 04:11:02;;;;;;;;;;;;;;;;;;5005356;28;20311;-70
2022/05/10 04:13:28;;;;;;;;;;;;;;;;;;5030349;28;20070;-70
2022/05/10 04:15:54;;;;;;;;;;;;;;;;;;5024650;28;19921;-71
2022/05/10 04:18:21;;;;;;;;;;;;;;;;;;5029815;28;19969;-69
2022/05/10 04:20:46;;;;;;;;;;;;;;;;;;5022640;28;19958;-69
2022/05/10 04:23:12;;;;;;;;;;;;;;;;;;5030033;28;19916;-68
2022/05/10 04:25:38;;;;;;;;;;;;;;;;;;5029751;28;20403;-68
2022/05/10 04:28:06;;;;;;;;;;;;;;;;;;5033410;28;19917;-69
2022/05/10 04:30:32;;;;;;;;;;;;;;;;;;5038061;28;19921;-69
2022/05/10 04:32:58;;;;;;;;;;;;;;;;;;5011579;28;20377;-69
2022/05/10 04:35:24;;;;;;;;;;;;;;;;;;5013699;28;19970;-69
2022/05/10 04:37:50;;;;;;;;;;;;;;;;;;5010930;28;19917;-68
2022/05/10 04:43:00;;;;;;;;;;;;;;;;;;5026471;28;20472;-69
2022/05/10 04:45:27;;;;;;;;;;;;;;;;;;5031484;28;19916;-68
2022/05/10 04:47:53;;;;;;;;;;;;;;;;;;5021883;28;19917;-69
2022/05/10 04:50:19;;;;;;;;;;;;;;;;;;5028358;28;19928;-68
2022/05/10 04:52:45;;;;;;;;;;;;;;;;;;5019005;28;19927;-69
2022/05/10 04:55:11;;;;;;;;;;;;;;;;;;5026490;28;19916;-69
2022/05/10 04:57:37;;;;;;;;;;;;;;;;;;5026582;28;19925;-69
2022/05/10 05:00:03;;;;;;;;;;;;;;;;;;5019691;28;19916;-69
2022/05/10 05:02:29;;;;;;;;;;;;;;;;;;5025211;28;19920;-69
2022/05/10 05:04:55;;;;;;;;;;;;;;;;;;5021261;28;20480;-68
2022/05/10 05:07:21;;;;;;;;;;;;;;;;;;5006207;28;19928;-68
2022/05/10 05:09:47;;;;;;;;;;;;;;;;;;5025815;28;20446;-68
2022/05/10 05:12:13;;;;;;;;;;;;;;;;;;5025404;28;20587;-69
2022/05/10 05:14:39;;;;;;;;;;;;;;;;;;5022748;28;19991;-68
2022/05/10 05:17:05;;;;;;;;;;;;;;;;;;5034131;28;19920;-68
2022/05/10 05:19:31;;;;;;;;;;;;;;;;;;5007872;28;19924;-68
2022/05/10 05:21:57;;;;;;;;;;;;;;;;;;5027841;28;20170;-68
2022/05/10 05:24:23;;;;;;;;;;;;;;;;;;5026891;28;19927;-68
2022/05/10 05:26:52;;;;;;;;;;;;;;;;;;5026038;28;20745;-68
2022/05/10 05:29:18;;;;;;;;;;;;;;;;;;5006272;28;19925;-68
2022/05/10 05:31:44;;;;;;;;;;;;;;;;;;5025948;28;20249;-68
2022/05/10 05:34:10;;;;;;;;;;;;;;;;;;5006097;28;20365;-68
2022/05/10 05:36:36;;;;;;;;;;;;;;;;;;5027244;28;19924;-68
2022/05/10 05:39:02;;;;;;;;;;;;;;;;;;5028770;28;19916;-68
2022/05/10 05:41:28;;;;;;;;;;;;;;;;;;5028381;28;20783;-68
2022/05/10 05:43:54;;;;;;;;;;;;;;;;;;5026974;28;19923;-69
2022/05/10 05:46:20;;;;;;;;;;;;;;;;;;5028798;28;19920;-69
2022/05/10 05:48:46;;;;;;;;;;;;;;;;;;5026272;28;19916;-69
2022/05/10 05:51:12;;;;;;;;;;;;;;;;;;5011518;28;19921;-68
2022/05/10 05:53:38;;;;;;;;;;;;;;;;;;5010914;28;20249;-68
2022/05/10 05:56:04;;;;;;;;;;;;;;;;;;5008821;28;19929;-68
2022/05/10 05:58:30;;;;;;;;;;;;;;;;;;5036160;28;19917;-68
2022/05/10 06:00:56;;;;;;;;;;;;;;;;;;5028038;28;19924;-68
2022/05/10 06:03:22;;;;;;;;;;;;;;;;;;5014675;28;19920;-68
2022/05/10 06:05:51;;;;;;;;;;;;;;;;;;5026778;28;20296;-68
2022/05/10 06:08:18;;;;;;;;;;;;;;;;;;5026596;28;20357;-68
2022/05/10 06:10:49;;;;;;;;;;;;;;;;;;5005837;28;20429;-68
2022/05/10 06:13:18;;;;;;;;;;;;;;;;;;5024402;28;20011;-68
2022/05/10 06:15:44;;;;;;;;;;;;;;;;;;5010525;28;20318;-68
2022/05/10 06:18:10;;;;;;;;;;;;;;;;;;5022089;28;19968;-68
2022/05/10 06:20:36;;;;;;;;;;;;;;;;;;5007123;28;20366;-68
2022/05/10 06:23:03;;;;;;;;;;;;;;;;;;5027736;28;19970;-68
2022/05/10 06:25:34;;;;;;;;;;;;;;;;;;5008670;28;20996;-68
2022/05/10 06:27:59;;;;;;;;;;;;;;;;;;5023288;28;20919;-68
2022/05/10 06:30:25;;;;;;;;;;;;;;;;;;5021980;28;20036;-69
2022/05/10 06:32:51;;;;;;;;;;;;;;;;;;5000253;28;20646;-68
2022/05/10 06:35:17;;;;;;;;;;;;;;;;;;5001142;28;20387;-69
2022/05/10 06:40:28;;;;;;;;;;;;;;;;;;5019975;28;19974;-68
2022/05/10 06:42:54;;;;;;;;;;;;;;;;;;5017842;28;19916;-69
2022/05/10 06:45:20;;;;;;;;;;;;;;;;;;5017831;28;20012;-69
2022/05/10 06:47:48;;;;;;;;;;;;;;;;;;5014367;28;21080;-69
2022/05/10 06:50:14;;;;;;;;;;;;;;;;;;4997674;28;20469;-69
2022/05/10 06:52:40;;;;;;;;;;;;;;;;;;5023196;28;20101;-68
2022/05/10 06:55:06;;;;;;;;;;;;;;;;;;5025549;28;19953;-68
2022/05/10 06:57:32;;;;;;;;;;;;;;;;;;5026575;28;20012;-68
2022/05/10 06:59:58;;;;;;;;;;;;;;;;;;5020343;28;20039;-68
2022/05/10 07:02:24;;;;;;;;;;;;;;;;;;5023715;28;20468;-68
2022/05/10 07:04:50;;;;;;;;;;;;;;;;;;5004059;28;19925;-68
2022/05/10 07:07:16;;;;;;;;;;;;;;;;;;5019239;28;20021;-68
2022/05/10 07:09:42;;;;;;;;;;;;;;;;;;5024137;28;20403;-68
2022/05/10 07:12:08;;;;;;;;;;;;;;;;;;5025838;28;20333;-70
2022/05/10 07:14:34;;;;;;;;;;;;;;;;;;5019483;28;19917;-69
2022/05/10 07:17:00;;;;;;;;;;;;;;;;;;5018590;28;20258;-69
2022/05/10 07:19:26;;;;;;;;;;;;;;;;;;5024570;28;20358;-69
2022/05/10 07:21:52;;;;;;;;;;;;;;;;;;5017343;28;19920;-69
2022/05/10 07:24:19;;;;;;;;;;;;;;;;;;5018415;28;19921;-69
2022/05/10 07:26:45;;;;;;;;;;;;;;;;;;5016119;28;20246;-69
2022/05/10 07:29:11;;;;;;;;;;;;;;;;;;5001747;28;20350;-69
2022/05/10 07:31:37;;;;;;;;;;;;;;;;;;5023158;28;19927;-70
2022/05/10 07:34:03;;;;;;;;;;;;;;;;;;5003029;28;20379;-69
2022/05/10 07:36:33;;;;;;;;;;;;;;;;;;5017588;28;20150;-69
2022/05/10 07:38:59;;;;;;;;;;;;;;;;;;4999356;28;20256;-68
2022/05/10 07:41:25;;;;;;;;;;;;;;;;;;5001369;28;19913;-67
2022/05/10 07:43:51;;;;;;;;;;;;;;;;;;5003672;28;20780;-70
2022/05/10 07:46:17;;;;;;;;;;;;;;;;;;5025589;28;19921;-69
2022/05/10 07:48:43;;;;;;;;;;;;;;;;;;5020071;28;19924;-69
2022/05/10 07:51:09;;;;;;;;;;;;;;;;;;5006381;28;19921;-68
2022/05/10 07:53:35;;;;;;;;;;;;;;;;;;5020252;28;19924;-69
2022/05/10 07:56:01;;;;;;;;;;;;;;;;;;5019925;28;19921;-69
2022/05/10 07:58:27;;;;;;;;;;;;;;;;;;5025893;28;20464;-68
2022/05/10 08:00:53;;;;;;;;;;;;;;;;;;5018847;28;20055;-68
2022/05/10 08:03:19;;;;;;;;;;;;;;;;;;5011712;28;20404;-68
2022/05/10 08:05:45;;;;;;;;;;;;;;;;;;5029646;28;19916;-68
2022/05/10 08:08:17;;;;;;;;;;;;;;;;;;5029326;28;20332;-68
2022/05/10 08:10:43;;;;;;;;;;;;;;;;;;5024992;28;19917;-69
2022/05/10 08:13:09;;;;;;;;;;;;;;;;;;5023133;28;20320;-69
2022/05/10 08:15:35;;;;;;;;;;;;;;;;;;5011974;28;20339;-68
2022/05/10 08:18:01;;;;;;;;;;;;;;;;;;5005663;28;20617;-70
2022/05/10 08:20:27;;;;;;;;;;;;;;;;;;5011518;28;19959;-69
2022/05/10 08:22:53;;;;;;;;;;;;;;;;;;5005624;28;19952;-69
2022/05/10 08:25:19;;;;;;;;;;;;;;;;;;5011554;28;20591;-69
2022/05/10 08:27:45;;;;;;;;;;;;;;;;;;5005363;28;20211;-69
2022/05/10 08:30:12;;;;;;;;;;;;;;;;;;5010719;28;19921;-69
2022/05/10 08:32:39;;;;;;;;;;;;;;;;;;5006827;28;20302;-68
2022/05/10 08:35:06;;;;;;;;;;;;;;;;;;5004980;28;19917;-69
2022/05/10 08:37:32;;;;;;;;;;;;;;;;;;5004762;28;20377;-69
2022/05/10 08:40:00;;;;;;;;;;;;;;;;;;5005314;28;20144;-68
2022/05/10 08:42:26;;;;;;;;;;;;;;;;;;5005630;28;20355;-69
2022/05/10 08:44:52;;;;;;;;;;;;;;;;;;5004239;28;20380;-68
2022/05/10 08:47:18;;;;;;;;;;;;;;;;;;5009458;28;20340;-69
2022/05/10 08:49:45;;;;;;;;;;;;;;;;;;5006611;28;19916;-68
2022/05/10 08:52:11;;;;;;;;;;;;;;;;;;5010375;28;20015;-69
2022/05/10 08:54:37;;;;;;;;;;;;;;;;;;5012504;28;19926;-69
2022/05/10 08:57:03;;;;;;;;;;;;;;;;;;5003014;28;20035;-69
2022/05/10 08:59:29;;;;;;;;;;;;;;;;;;5007722;28;20106;-68
2022/05/10 09:01:59;;;;;;;;;;;;;;;;;;5004176;28;20341;-69
2022/05/10 09:04:25;;;;;;;;;;;;;;;;;;5007103;28;19917;-68
2022/05/10 09:06:51;;;;;;;;;;;;;;;;;;5004124;28;19952;-68
2022/05/10 09:09:17;;;;;;;;;;;;;;;;;;5007355;28;20626;-68
2022/05/10 09:11:43;;;;;;;;;;;;;;;;;;5005027;28;20795;-68
2022/05/10 09:14:09;;;;;;;;;;;;;;;;;;5022204;28;19920;-64
2022/05/10 09:16:35;;;;;;;;;;;;;;;;;;5005803;28;19913;-64
2022/05/10 09:19:01;;;;;;;;;;;;;;;;;;5005303;28;20014;-65
2022/05/10 09:21:27;;;;;;;;;;;;;;;;;;5010156;28;19983;-65
2022/05/10 09:23:54;;;;;;;;;;;;;;;;;;5003371;28;19943;-65
2022/05/10 09:26:20;;;;;;;;;;;;;;;;;;5011108;28;19921;-64
2022/05/10 09:28:47;;;;;;;;;;;;;;;;;;5002258;28;19989;-65
2022/05/10 09:36:45;;;;;;;;;;;;;;;;;;4999722;28;19994;-65
2022/05/10 09:39:11;;;;;;;;;;;;;;;;;;5006338;28;19921;-65
2022/05/10 09:41:37;;;;;;;;;;;;;;;;;;5026418;28;19917;-64
2022/05/10 09:44:03;;;;;;;;;;;;;;;;;;5023000;28;20006;-65
2022/05/10 09:46:34;;;;;;;;;;;;;;;;;;5013120;28;19996;-64
2022/05/10 09:49:00;;;;;;;;;;;;;;;;;;5006063;28;20440;-65
2022/05/10 09:51:26;;;;;;;;;;;;;;;;;;5007418;28;19932;-66
2022/05/10 09:53:52;;;;;;;;;;;;;;;;;;5004917;28;19928;-64
2022/05/10 09:56:18;;;;;;;;;;;;;;;;;;5004408;28;19921;-64
2022/05/10 09:58:44;;;;;;;;;;;;;;;;;;5016321;28;20362;-64
2022/05/10 10:01:15;;;;;;;;;;;;;;;;;;5009274;28;20032;-65
2022/05/10 10:03:41;;;;;;;;;;;;;;;;;;5010156;28;20028;-65
2022/05/10 10:06:07;;;;;;;;;;;;;;;;;;5008376;28;20035;-65
2022/05/10 10:08:33;;;;;;;;;;;;;;;;;;5022693;28;19925;-66
2022/05/10 10:10:59;;;;;;;;;;;;;;;;;;5006587;28;19928;-66
2022/05/10 10:13:27;;;;;;;;;;;;;;;;;;5012649;28;20449;-66
2022/05/10 10:15:53;;;;;;;;;;;;;;;;;;5018374;28;19916;-65
2022/05/10 10:18:19;;;;;;;;;;;;;;;;;;5013553;28;19920;-65
2022/05/10 10:20:45;;;;;;;;;;;;;;;;;;5004140;28;19924;-65
2022/05/10 10:23:11;;;;;;;;;;;;;;;;;;5003784;28;19917;-66
2022/05/10 10:25:39;;;;;;;;;;;;;;;;;;5003768;28;20347;-65
2022/05/10 10:28:05;;;;;;;;;;;;;;;;;;5001691;28;19917;-65
2022/05/10 10:30:31;;;;;;;;;;;;;;;;;;5003374;28;20522;-66
2022/05/10 10:32:57;;;;;;;;;;;;;;;;;;5001466;28;20377;-65
2022/05/10 10:35:23;;;;;;;;;;;;;;;;;;5000581;28;20363;-64
2022/05/10 10:37:49;;;;;;;;;;;;;;;;;;5007802;28;20091;-65
2022/05/10 10:40:15;;;;;;;;;;;;;;;;;;4999119;28;19925;-66
2022/05/10 10:42:41;;;;;;;;;;;;;;;;;;4999729;28;19917;-66
2022/05/10 10:45:07;;;;;;;;;;;;;;;;;;5002313;28;19917;-65
2022/05/10 10:47:34;;;;;;;;;;;;;;;;;;5002057;28;19924;-66
2022/05/10 10:50:00;;;;;;;;;;;;;;;;;;4994215;28;19925;-65
2022/05/10 10:52:29;;;;;;;;;;;;;;;;;;5002328;28;19929;-66
2022/05/10 10:54:55;;;;;;;;;;;;;;;;;;4998346;28;19924;-64
2022/05/10 10:57:20;;;;;;;;;;;;;;;;;;4997478;28;19921;-64
2022/05/10 10:59:48;;;;;;;;;;;;;;;;;;4996739;28;19956;-64
2022/05/10 11:02:14;;;;;;;;;;;;;;;;;;5002839;28;19924;-65
2022/05/10 11:04:40;;;;;;;;;;;;;;;;;;4999261;28;19932;-65
2022/05/10 11:07:06;;;;;;;;;;;;;;;;;;5004492;28;19921;-66
2022/05/10 11:09:32;;;;;;;;;;;;;;;;;;5009906;28;20287;-65
2022/05/10 11:11:59;;;;;;;;;;;;;;;;;;5001339;28;20019;-65
2022/05/10 11:14:25;;;;;;;;;;;;;;;;;;4976271;28;19917;-64
2022/05/10 11:16:51;;;;;;;;;;;;;;;;;;4970548;28;20494;-64
2022/05/10 11:19:17;;;;;;;;;;;;;;;;;;5000313;28;20011;-64
2022/05/10 11:21:42;;;;;;;;;;;;;;;;;;4998220;28;20312;-66
2022/05/10 11:24:08;;;;;;;;;;;;;;;;;;5006609;28;20523;-65
2022/05/10 11:26:34;;;;;;;;;;;;;;;;;;5010455;28;19975;-65
2022/05/10 11:29:02;;;;;;;;;;;;;;;;;;5010671;28;20449;-64
2022/05/10 11:31:28;;;;;;;;;;;;;;;;;;5008617;28;19921;-63
2022/05/10 11:33:55;;;;;;;;;;;;;;;;;;5006452;28;20143;-63
2022/05/10 11:36:22;;;;;;;;;;;;;;;;;;5010542;28;19913;-63
2022/05/10 11:38:48;;;;;;;;;;;;;;;;;;5012213;28;19917;-63
2022/05/10 11:41:14;;;;;;;;;;;;;;;;;;5010205;28;19920;-62
2022/05/10 11:43:40;;;;;;;;;;;;;;;;;;5006518;28;19921;-63
2022/05/10 11:46:06;;;;;;;;;;;;;;;;;;5006385;28;19968;-63
2022/05/10 11:48:32;;;;;;;;;;;;;;;;;;5003973;28;20443;-65
2022/05/10 11:53:42;;;;;;;;;;;;;;;;;;4949045;28;20302;-63
2022/05/10 11:56:08;;;;;;;;;;;;;;;;;;4947137;28;21092;-64
2022/05/10 11:58:34;;;;;;;;;;;;;;;;;;4968257;28;20156;-64
2022/05/10 12:01:00;;;;;;;;;;;;;;;;;;4950078;28;20489;-64
2022/05/10 12:03:26;;;;;;;;;;;;;;;;;;4959369;28;20035;-64
2022/05/10 12:05:52;;;;;;;;;;;;;;;;;;4999780;28;20458;-64
2022/05/10 12:08:19;;;;;;;;;;;;;;;;;;5016136;28;20012;-64
2022/05/10 12:10:45;;;;;;;;;;;;;;;;;;5013095;28;19916;-64
2022/05/10 12:13:11;;;;;;;;;;;;;;;;;;5013979;28;19921;-63
2022/05/10 12:23:41;;;;;;;;;;;;;;;;;;5018239;28;20492;-66
2022/05/10 12:26:07;;;;;;;;;;;;;;;;;;5012702;28;19921;-63
2022/05/10 12:28:33;;;;;;;;;;;;;;;;;;5022802;28;19971;-65
2022/05/10 12:30:59;;;;;;;;;;;;;;;;;;5010293;28;20059;-64
2022/05/10 12:33:25;;;;;;;;;;;;;;;;;;5020209;28;20613;-63
2022/05/10 12:35:52;;;;;;;;;;;;;;;;;;5020620;28;19917;-64
2022/05/10 12:38:18;;;;;;;;;;;;;;;;;;5026699;28;20016;-63
2022/05/10 12:40:51;;;;;;;;;;;;;;;;;;5026433;28;19917;-63
2022/05/10 12:43:17;;;;;;;;;;;;;;;;;;5022704;28;20531;-64
2022/05/10 12:45:44;;;;;;;;;;;;;;;;;;5004585;28;19924;-63
2022/05/10 12:48:10;;;;;;;;;;;;;;;;;;5034275;28;19986;-63
2022/05/10 12:50:37;;;;;;;;;;;;;;;;;;5025447;28;20320;-66
2022/05/10 12:53:03;;;;;;;;;;;;;;;;;;4999039;28;20401;-64
2022/05/10 12:55:29;;;;;;;;;;;;;;;;;;5017177;28;19913;-64
2022/05/10 12:57:55;;;;;;;;;;;;;;;;;;5017179;28;19981;-63
2022/05/10 13:00:21;;;;;;;;;;;;;;;;;;5010005;28;20419;-63
2022/05/10 13:02:49;;;;;;;;;;;;;;;;;;5021343;28;19917;-64
2022/05/10 13:05:15;;;;;;;;;;;;;;;;;;5024064;28;19924;-63
2022/05/10 13:07:42;;;;;;;;;;;;;;;;;;5006281;28;20321;-63
2022/05/10 13:10:08;;;;;;;;;;;;;;;;;;5001638;28;19917;-63
2022/05/10 13:12:37;;;;;;;;;;;;;;;;;;5020447;28;19928;-65
2022/05/10 13:15:03;;;;;;;;;;;;;;;;;;4999358;28;19936;-64
2022/05/10 13:17:29;;;;;;;;;;;;;;;;;;5007844;28;19924;-64
2022/05/10 13:19:55;;;;;;;;;;;;;;;;;;5003819;28;19940;-64
2022/05/10 13:22:21;;;;;;;;;;;;;;;;;;5006488;28;20324;-65
2022/05/10 13:24:47;;;;;;;;;;;;;;;;;;4993186;28;19928;-65
2022/05/10 13:27:13;;;;;;;;;;;;;;;;;;5002190;28;20097;-65
2022/05/10 13:29:41;;;;;;;;;;;;;;;;;;5019023;28;20026;-64
2022/05/10 13:32:07;;;;;;;;;;;;;;;;;;5003034;28;20359;-64
2022/05/10 13:34:33;;;;;;;;;;;;;;;;;;5006272;28;19931;-64
2022/05/10 13:36:59;;;;;;;;;;;;;;;;;;4997507;28;20539;-65
2022/05/10 13:39:25;;;;;;;;;;;;;;;;;;5018089;28;19956;-65
2022/05/10 13:41:51;;;;;;;;;;;;;;;;;;5006974;28;20343;-65
2022/05/10 13:44:18;;;;;;;;;;;;;;;;;;5014786;28;19918;-67
2022/05/10 13:46:44;;;;;;;;;;;;;;;;;;5006027;28;20437;-67
2022/05/10 13:49:10;;;;;;;;;;;;;;;;;;5014172;28;19922;-67
2022/05/10 13:51:36;;;;;;;;;;;;;;;;;;5024550;28;20003;-68
2022/05/10 13:54:02;;;;;;;;;;;;;;;;;;5003556;28;19917;-68
2022/05/10 13:56:29;;;;;;;;;;;;;;;;;;5001121;28;20291;-67
2022/05/10 13:58:55;;;;;;;;;;;;;;;;;;5002654;28;19924;-67
2022/05/10 14:01:22;;;;;;;;;;;;;;;;;;5008511;28;20271;-67
2022/05/10 14:03:48;;;;;;;;;;;;;;;;;;5000818;28;19918;-67
2022/05/10 14:06:14;;;;;;;;;;;;;;;;;;4999403;28;19924;-68
2022/05/10 14:08:43;;;;;;;;;;;;;;;;;;5035899;28;19924;-67
2022/05/10 14:11:09;;;;;;;;;;;;;;;;;;5026387;28;20008;-67
2022/05/10 14:13:35;;;;;;;;;;;;;;;;;;5031707;28;19920;-67
2022/05/10 14:16:01;;;;;;;;;;;;;;;;;;5021067;28;19925;-68
2022/05/10 14:18:27;;;;;;;;;;;;;;;;;;5031699;28;19916;-67
2022/05/10 14:20:53;;;;;;;;;;;;;;;;;;5030147;28;20543;-69
2022/05/10 14:23:20;;;;;;;;;;;;;;;;;;5027593;28;19921;-67
2022/05/10 14:25:46;;;;;;;;;;;;;;;;;;5037206;28;19921;-67
2022/05/10 14:28:17;;;;;;;;;;;;;;;;;;5014068;28;20452;-67
2022/05/10 14:30:44;;;;;;;;;;;;;;;;;;5025151;28;19917;-67
2022/05/10 14:33:10;;;;;;;;;;;;;;;;;;5029540;28;19920;-68
2022/05/10 14:35:36;;;;;;;;;;;;;;;;;;5031171;28;19946;-67
2022/05/10 14:38:02;;;;;;;;;;;;;;;;;;5033123;28;20256;-67
2022/05/10 14:40:28;;;;;;;;;;;;;;;;;;5036595;28;19942;-66
2022/05/10 14:42:54;;;;;;;;;;;;;;;;;;5027696;28;19916;-66
2022/05/10 14:45:20;;;;;;;;;;;;;;;;;;5034490;28;20258;-67
2022/05/10 14:47:46;;;;;;;;;;;;;;;;;;5027509;28;20439;-67
2022/05/10 14:50:12;;;;;;;;;;;;;;;;;;5028599;28;19923;-66
2022/05/10 14:52:38;;;;;;;;;;;;;;;;;;5025945;28;20019;-66
2022/05/10 14:55:04;;;;;;;;;;;;;;;;;;5030587;28;20480;-67
2022/05/10 14:57:30;;;;;;;;;;;;;;;;;;5042420;28;19924;-66
2022/05/10 14:59:58;;;;;;;;;;;;;;;;;;5033810;28;20253;-67
2022/05/10 15:02:24;;;;;;;;;;;;;;;;;;5016312;28;20039;-67
2022/05/10 15:04:50;;;;;;;;;;;;;;;;;;5028481;28;19916;-67
2022/05/10 15:07:16;;;;;;;;;;;;;;;;;;5016834;28;19940;-67
2022/05/10 15:09:43;;;;;;;;;;;;;;;;;;5016813;28;20016;-67
2022/05/10 15:14:54;;;;;;;;;;;;;;;;;;5009139;28;20014;-67
2022/05/10 15:17:20;;;;;;;;;;;;;;;;;;5008186;28;20244;-66
2022/05/10 15:19:46;;;;;;;;;;;;;;;;;;5001008;28;19917;-67
2022/05/10 15:22:12;;;;;;;;;;;;;;;;;;5004880;28;20035;-67
2022/05/10 15:24:38;;;;;;;;;;;;;;;;;;5012759;28;19917;-67
2022/05/10 15:27:04;;;;;;;;;;;;;;;;;;5002756;28;19918;-67
2022/05/10 15:29:30;;;;;;;;;;;;;;;;;;5015166;28;19927;-67
2022/05/10 15:31:56;;;;;;;;;;;;;;;;;;5004890;28;19924;-67
2022/05/10 15:37:08;;;;;;;;;;;;;;;;;;5006190;28;20277;-67
2022/05/10 15:39:34;;;;;;;;;;;;;;;;;;5003156;28;19925;-67
2022/05/10 15:42:00;;;;;;;;;;;;;;;;;;5004228;28;21696;-67
2022/05/10 15:44:26;;;;;;;;;;;;;;;;;;5007153;28;19918;-67
2022/05/10 15:46:52;;;;;;;;;;;;;;;;;;5002903;28;19946;-69
2022/05/10 15:49:18;;;;;;;;;;;;;;;;;;5005246;28;19916;-68
2022/05/10 15:51:44;;;;;;;;;;;;;;;;;;5003794;28;19940;-68
2022/05/10 15:54:10;;;;;;;;;;;;;;;;;;5006057;28;19917;-68
2022/05/10 15:56:36;;;;;;;;;;;;;;;;;;5021354;28;19921;-69
2022/05/10 15:59:02;;;;;;;;;;;;;;;;;;5007838;28;20289;-68
2022/05/10 16:01:30;;;;;;;;;;;;;;;;;;5007826;28;20021;-67
2022/05/10 16:03:56;;;;;;;;;;;;;;;;;;5011025;28;19988;-67
2022/05/10 16:06:22;;;;;;;;;;;;;;;;;;4996282;28;20319;-67
2022/05/10 16:08:48;;;;;;;;;;;;;;;;;;5021215;28;19925;-67
2022/05/10 16:11:14;;;;;;;;;;;;;;;;;;5006124;28;19952;-69
2022/05/10 16:13:41;;;;;;;;;;;;;;;;;;5009058;28;20130;-67
2022/05/10 16:16:07;;;;;;;;;;;;;;;;;;5006854;28;21034;-67
2022/05/10 16:18:32;;;;;;;;;;;;;;;;;;5032280;28;19927;-67
2022/05/10 16:20:59;;;;;;;;;;;;;;;;;;5030276;28;20228;-67
2022/05/10 16:23:25;;;;;;;;;;;;;;;;;;5031215;28;20350;-67
2022/05/10 16:25:51;;;;;;;;;;;;;;;;;;5024939;28;20386;-67
2022/05/10 16:31:01;;;;;;;;;;;;;;;;;;5026645;28;19927;-67
2022/05/10 16:33:28;;;;;;;;;;;;;;;;;;5018259;28;20456;-67
2022/05/10 16:35:54;;;;;;;;;;;;;;;;;;5026046;28;19917;-67
2022/05/10 16:38:20;;;;;;;;;;;;;;;;;;5017740;28;21490;-67
2022/05/10 16:40:47;;;;;;;;;;;;;;;;;;5013507;28;20178;-67
2022/05/10 16:43:13;;;;;;;;;;;;;;;;;;5036174;28;19917;-67
2022/05/10 16:45:39;;;;;;;;;;;;;;;;;;5036395;28;20339;-67
2022/05/10 16:48:05;;;;;;;;;;;;;;;;;;5031902;28;19994;-67
2022/05/10 16:50:31;;;;;;;;;;;;;;;;;;5034481;28;20255;-68
2022/05/10 16:52:58;;;;;;;;;;;;;;;;;;5011686;28;19920;-67
2022/05/10 16:55:24;;;;;;;;;;;;;;;;;;5030202;28;20443;-68
2022/05/10 16:57:53;;;;;;;;;;;;;;;;;;5028457;28;19943;-67
2022/05/10 17:00:21;;;;;;;;;;;;;;;;;;5036852;28;19994;-68
2022/05/10 17:02:47;;;;;;;;;;;;;;;;;;5011439;28;20425;-67
2022/05/10 17:05:14;;;;;;;;;;;;;;;;;;5013115;28;20575;-69
2022/05/10 17:07:42;;;;;;;;;;;;;;;;;;5030213;28;19958;-69
2022/05/10 17:10:08;;;;;;;;;;;;;;;;;;5026094;28;20325;-69
2022/05/10 17:12:34;;;;;;;;;;;;;;;;;;5027332;28;19920;-69
2022/05/10 17:15:00;;;;;;;;;;;;;;;;;;5009782;28;20027;-69
2022/05/10 17:17:26;;;;;;;;;;;;;;;;;;5014657;28;19955;-69
2022/05/10 17:19:52;;;;;;;;;;;;;;;;;;5025560;28;20031;-68
2022/05/10 17:22:18;;;;;;;;;;;;;;;;;;5031407;28;19925;-69